Time;durP1;ratioP1;P1;durP2;ratioP2;P2;SDS_P1;SDS_P2;PMS_P1;PMS_P2;Temp;Humidity;BMP_temperature;BMP_pressure;BME280_temperature;BME280_humidity;BME280_pressure;Samples;Min_cycle;Max_cycle;Signal;HPM_P1;HPM_P2
2020/12/07 00:02:24;;;;;;;170.70;60.97;;;4.60;99.90;;;;;;5066754;28;20035;-83
2020/12/07 00:04:49;;;;;;;159.18;60.38;;;4.60;99.90;;;;;;5060205;28;20028;-83
2020/12/07 00:07:15;;;;;;;178.60;64.22;;;4.60;99.90;;;;;;5060573;28;20036;-83
2020/12/07 00:09:41;;;;;;;173.57;59.92;;;4.60;99.90;;;;;;5063291;28;20510;-83
2020/12/07 00:12:07;;;;;;;170.98;60.05;;;4.60;99.90;;;;;;5067964;28;20024;-83
2020/12/07 00:14:33;;;;;;;161.57;56.17;;;4.60;99.90;;;;;;5069249;28;20031;-83
2020/12/07 00:16:58;;;;;;;160.23;56.90;;;4.60;99.90;;;;;;5050181;28;20020;-83
2020/12/07 00:19:24;;;;;;;162.80;56.90;;;4.70;99.90;;;;;;5066836;28;20043;-84
2020/12/07 00:21:49;;;;;;;172.07;59.33;;;4.70;99.90;;;;;;5080670;28;20107;-84
2020/12/07 00:24:15;;;;;;;171.98;59.38;;;4.70;99.90;;;;;;5071084;28;20057;-85
2020/12/07 00:26:44;;;;;;;158.57;57.95;;;4.70;99.90;;;;;;5083712;28;20038;-84
2020/12/07 00:29:10;;;;;;;160.73;56.55;;;4.70;99.90;;;;;;5071714;28;20473;-84
2020/12/07 00:31:35;;;;;;;168.23;57.28;;;4.70;99.90;;;;;;5070602;28;20050;-84
2020/12/07 00:34:01;;;;;;;174.88;56.75;;;4.70;99.90;;;;;;5070534;28;20034;-84
2020/12/07 00:36:26;;;;;;;170.68;60.35;;;4.60;99.90;;;;;;5089489;28;20115;-84
2020/12/07 00:38:53;;;;;;;160.38;58.97;;;4.60;99.90;;;;;;5092922;28;20105;-84
2020/12/07 00:41:23;;;;;;;185.60;62.08;;;4.60;99.90;;;;;;5079642;28;20023;-85
2020/12/07 00:43:50;;;;;;;184.15;60.95;;;4.60;99.90;;;;;;5087317;28;20028;-84
2020/12/07 00:46:17;;;;;;;172.13;61.25;;;4.60;99.90;;;;;;5087875;28;20031;-83
2020/12/07 00:48:43;;;;;;;159.20;59.28;;;4.60;99.90;;;;;;5069964;28;20016;-83
2020/12/07 00:51:09;;;;;;;151.45;59.05;;;4.60;99.90;;;;;;5062278;28;20400;-83
2020/12/07 00:53:35;;;;;;;180.57;61.15;;;4.60;99.90;;;;;;5072177;28;20107;-83
2020/12/07 00:56:00;;;;;;;154.25;56.45;;;4.60;99.90;;;;;;5089733;28;20028;-84
2020/12/07 00:58:27;;;;;;;162.48;59.30;;;4.60;99.90;;;;;;5070635;28;20043;-84
2020/12/07 01:00:52;;;;;;;162.82;58.45;;;4.60;99.90;;;;;;5067059;28;20054;-84
2020/12/07 01:03:18;;;;;;;160.13;56.53;;;4.50;99.90;;;;;;5067168;28;20024;-84
2020/12/07 01:05:44;;;;;;;173.43;58.72;;;4.50;99.90;;;;;;5090840;28;20028;-83
2020/12/07 01:08:09;;;;;;;163.23;56.60;;;4.60;99.90;;;;;;5071860;28;20028;-83
2020/12/07 01:10:35;;;;;;;155.70;55.10;;;4.60;99.90;;;;;;5106825;28;20512;-85
2020/12/07 01:13:00;;;;;;;157.52;56.13;;;4.60;99.90;;;;;;5071588;28;20438;-84
2020/12/07 01:15:26;;;;;;;162.30;59.03;;;4.60;99.90;;;;;;5087160;28;20039;-84
2020/12/07 01:17:51;;;;;;;167.00;58.05;;;4.60;99.90;;;;;;5069746;28;20023;-84
2020/12/07 01:20:17;;;;;;;164.98;58.78;;;4.60;99.90;;;;;;5079187;28;20496;-85
2020/12/07 01:22:42;;;;;;;155.18;57.30;;;4.60;99.90;;;;;;5093072;28;20047;-84
2020/12/07 01:25:08;;;;;;;153.85;58.28;;;4.70;99.90;;;;;;5078388;28;20051;-84
2020/12/07 01:27:33;;;;;;;160.25;58.00;;;4.70;99.90;;;;;;5070322;28;20024;-84
2020/12/07 01:29:59;;;;;;;157.45;55.35;;;4.70;99.90;;;;;;5070720;28;20396;-84
2020/12/07 01:32:24;;;;;;;147.30;55.35;;;4.70;99.90;;;;;;5085970;28;20016;-85
2020/12/07 01:34:50;;;;;;;158.55;54.10;;;4.80;99.90;;;;;;5080523;28;20028;-84
2020/12/07 01:37:15;;;;;;;158.07;54.88;;;4.70;99.90;;;;;;5077029;28;20028;-85
2020/12/07 01:39:41;;;;;;;158.07;54.50;;;4.70;99.90;;;;;;5085606;28;20063;-84
2020/12/07 01:42:07;;;;;;;165.90;54.33;;;4.60;99.90;;;;;;5070076;28;20021;-84
2020/12/07 01:44:33;;;;;;;158.50;54.60;;;4.60;99.90;;;;;;5059623;28;20024;-84
2020/12/07 01:47:00;;;;;;;132.63;51.08;;;4.60;99.90;;;;;;5050699;28;20469;-84
2020/12/07 01:49:25;;;;;;;146.90;54.92;;;4.70;99.90;;;;;;5065873;28;20119;-84
2020/12/07 01:51:51;;;;;;;144.20;53.03;;;4.60;99.90;;;;;;5109890;28;20044;-84
2020/12/07 01:54:17;;;;;;;153.68;54.33;;;4.60;99.90;;;;;;5084869;28;20025;-83
2020/12/07 01:56:44;;;;;;;148.13;53.50;;;4.60;99.90;;;;;;5071292;28;20024;-84
2020/12/07 01:59:09;;;;;;;145.80;55.05;;;4.60;99.90;;;;;;5087347;28;20122;-84
2020/12/07 02:01:36;;;;;;;157.77;57.28;;;4.70;99.90;;;;;;5068665;28;20104;-84
2020/12/07 02:04:01;;;;;;;162.48;55.20;;;4.70;99.90;;;;;;5073624;28;20029;-84
2020/12/07 02:06:27;;;;;;;149.05;54.63;;;4.60;99.90;;;;;;5077164;28;20032;-84
2020/12/07 02:08:52;;;;;;;149.48;54.10;;;4.70;99.90;;;;;;5078901;28;20028;-85
2020/12/07 02:11:18;;;;;;;164.68;57.08;;;4.60;99.90;;;;;;5086877;28;20012;-83
2020/12/07 02:13:44;;;;;;;166.15;55.17;;;4.60;99.90;;;;;;5073985;28;20028;-83
2020/12/07 02:16:09;;;;;;;158.98;55.60;;;4.60;99.90;;;;;;5072749;28;20024;-84
2020/12/07 02:18:35;;;;;;;160.48;56.50;;;4.60;99.90;;;;;;5072774;28;20428;-84
2020/12/07 02:21:01;;;;;;;169.13;57.08;;;4.60;99.90;;;;;;5088432;28;20047;-83
2020/12/07 02:23:26;;;;;;;176.38;60.03;;;4.70;99.90;;;;;;5099019;28;20035;-83
2020/12/07 02:25:52;;;;;;;154.98;55.08;;;4.60;99.90;;;;;;5109793;28;20514;-83
2020/12/07 02:28:17;;;;;;;165.13;55.95;;;4.60;99.90;;;;;;5073176;28;20028;-84
2020/12/07 02:30:43;;;;;;;161.88;55.85;;;4.60;99.90;;;;;;5072473;28;20376;-83
2020/12/07 02:33:09;;;;;;;148.27;54.50;;;4.70;99.90;;;;;;5071867;28;20039;-83
2020/12/07 02:35:34;;;;;;;150.52;54.03;;;4.70;99.90;;;;;;5084329;28;20023;-84
2020/12/07 02:38:00;;;;;;;156.65;56.67;;;4.70;99.90;;;;;;5095337;28;20030;-84
2020/12/07 02:40:25;;;;;;;145.30;55.53;;;4.70;99.90;;;;;;5098595;28;20093;-84
2020/12/07 02:42:51;;;;;;;144.55;53.97;;;4.70;99.90;;;;;;5064189;28;20028;-83
2020/12/07 02:45:17;;;;;;;134.63;50.40;;;4.70;99.90;;;;;;5084809;28;20024;-84
2020/12/07 02:47:43;;;;;;;145.88;52.25;;;4.70;99.90;;;;;;5068040;28;20032;-84
2020/12/07 02:50:11;;;;;;;144.32;52.78;;;4.80;99.90;;;;;;5074621;28;20032;-84
2020/12/07 02:52:37;;;;;;;147.98;53.90;;;4.80;99.90;;;;;;5094947;28;20086;-84
2020/12/07 02:55:08;;;;;;;148.77;55.25;;;4.70;99.90;;;;;;5081690;28;20024;-84
2020/12/07 02:57:34;;;;;;;140.68;52.70;;;4.70;99.90;;;;;;5079350;28;20028;-83
2020/12/07 03:00:00;;;;;;;155.93;55.33;;;4.70;99.90;;;;;;5073301;28;20492;-82
2020/12/07 03:02:25;;;;;;;154.95;54.83;;;4.70;99.90;;;;;;5069559;28;20080;-82
2020/12/07 03:04:51;;;;;;;159.32;55.60;;;4.70;99.90;;;;;;5091003;28;20067;-84
2020/12/07 03:07:17;;;;;;;145.38;53.47;;;4.70;99.90;;;;;;5092286;28;20028;-84
2020/12/07 03:09:42;;;;;;;153.90;55.58;;;4.70;99.90;;;;;;5074477;28;20021;-83
2020/12/07 03:12:09;;;;;;;154.85;55.38;;;4.60;99.90;;;;;;5073134;28;20028;-84
2020/12/07 03:14:35;;;;;;;168.93;55.47;;;4.60;99.90;;;;;;5070941;28;20020;-84
2020/12/07 03:17:01;;;;;;;148.68;55.28;;;4.70;99.90;;;;;;5071413;28;20030;-83
2020/12/07 03:19:27;;;;;;;168.85;54.72;;;4.70;99.90;;;;;;5061542;28;20037;-81
2020/12/07 03:21:52;;;;;;;175.95;56.65;;;4.70;99.90;;;;;;5112608;28;20023;-81
2020/12/07 03:24:18;;;;;;;157.75;56.13;;;4.60;99.90;;;;;;5087418;28;20016;-82
2020/12/07 03:26:43;;;;;;;155.38;55.33;;;4.70;99.90;;;;;;5080828;28;20019;-81
2020/12/07 03:29:09;;;;;;;173.38;59.50;;;4.60;99.90;;;;;;5055961;28;20050;-82
2020/12/07 03:31:37;;;;;;;164.68;55.90;;;4.60;99.90;;;;;;5089688;28;20020;-81
2020/12/07 03:34:04;;;;;;;154.43;55.55;;;4.70;99.90;;;;;;5070399;28;20411;-82
2020/12/07 03:36:30;;;;;;;176.40;58.78;;;4.60;99.90;;;;;;5090349;28;20020;-83
2020/12/07 03:38:56;;;;;;;158.65;54.83;;;4.60;99.90;;;;;;5085724;28;20140;-83
2020/12/07 03:41:21;;;;;;;149.80;53.15;;;4.60;99.90;;;;;;5059414;28;20060;-82
2020/12/07 03:43:48;;;;;;;152.85;56.95;;;4.60;99.90;;;;;;5068909;28;20028;-82
2020/12/07 03:46:14;;;;;;;158.15;54.03;;;4.70;99.90;;;;;;5090908;28;20031;-84
2020/12/07 03:48:40;;;;;;;160.55;56.70;;;4.70;99.90;;;;;;5072116;28;20368;-84
2020/12/07 03:51:06;;;;;;;163.43;55.63;;;4.60;99.90;;;;;;5087696;28;20039;-82
2020/12/07 03:53:37;;;;;;;160.68;57.78;;;4.60;99.90;;;;;;5094066;28;20468;-82
2020/12/07 03:56:04;;;;;;;175.37;55.47;;;4.60;99.90;;;;;;5089292;28;20020;-83
2020/12/07 03:58:29;;;;;;;158.45;56.40;;;4.60;99.90;;;;;;5071823;28;20356;-82
2020/12/07 04:00:55;;;;;;;147.63;57.33;;;4.50;99.90;;;;;;5070557;28;20060;-83
2020/12/07 04:03:22;;;;;;;176.35;58.95;;;4.50;99.90;;;;;;5071767;28;20499;-84
2020/12/07 04:05:54;;;;;;;157.52;56.47;;;4.50;99.90;;;;;;5075453;28;20502;-82
2020/12/07 04:08:20;;;;;;;164.95;57.17;;;4.50;99.90;;;;;;5091288;28;20418;-82
2020/12/07 04:10:46;;;;;;;183.88;58.75;;;4.60;99.90;;;;;;5088880;28;20066;-82
2020/12/07 04:13:11;;;;;;;169.73;58.38;;;4.60;99.90;;;;;;5069801;28;20031;-82
2020/12/07 04:15:37;;;;;;;178.38;60.20;;;4.60;99.90;;;;;;5088485;28;20358;-84
2020/12/07 04:18:03;;;;;;;177.32;55.72;;;4.50;99.90;;;;;;5071289;28;20437;-83
2020/12/07 04:20:28;;;;;;;179.95;59.72;;;4.60;99.90;;;;;;5081131;28;20039;-82
2020/12/07 04:22:55;;;;;;;163.00;57.55;;;4.60;99.90;;;;;;5074640;28;20040;-82
2020/12/07 04:25:21;;;;;;;173.20;58.65;;;4.60;99.90;;;;;;5086967;28;20100;-82
2020/12/07 04:27:47;;;;;;;165.32;57.92;;;4.60;99.90;;;;;;5081561;28;20021;-83
2020/12/07 04:30:12;;;;;;;170.77;58.28;;;4.50;99.90;;;;;;5071468;28;20024;-82
2020/12/07 04:32:38;;;;;;;182.95;59.78;;;4.50;99.90;;;;;;5088108;28;20028;-82
2020/12/07 04:35:04;;;;;;;166.07;56.75;;;4.50;99.90;;;;;;5076029;28;20027;-82
2020/12/07 04:37:29;;;;;;;181.05;60.78;;;4.50;99.90;;;;;;5072636;28;20464;-82
2020/12/07 04:39:56;;;;;;;177.00;58.60;;;4.60;99.90;;;;;;5081806;28;20042;-82
2020/12/07 04:42:22;;;;;;;161.63;56.08;;;4.50;99.90;;;;;;5073822;28;20020;-82
2020/12/07 04:44:48;;;;;;;159.65;55.58;;;4.50;99.90;;;;;;5068212;28;20111;-82
2020/12/07 04:47:17;;;;;;;152.98;53.53;;;4.60;99.90;;;;;;5071019;28;20582;-82
2020/12/07 04:49:45;;;;;;;147.25;54.15;;;4.50;99.90;;;;;;5088906;28;20529;-82
2020/12/07 04:52:13;;;;;;;152.55;57.92;;;4.50;99.90;;;;;;5092605;28;20429;-82
2020/12/07 04:54:41;;;;;;;153.13;54.35;;;4.50;99.90;;;;;;5082871;28;20020;-83
2020/12/07 04:57:07;;;;;;;147.98;54.92;;;4.50;99.90;;;;;;5089368;28;20028;-84
2020/12/07 04:59:33;;;;;;;154.25;57.33;;;4.50;99.90;;;;;;5069482;28;20123;-83
2020/12/07 05:02:00;;;;;;;167.93;55.70;;;4.50;99.90;;;;;;5090631;28;20460;-83
2020/12/07 05:04:25;;;;;;;145.68;54.28;;;4.40;99.90;;;;;;5090904;28;20038;-82
2020/12/07 05:07:01;;;;;;;167.05;57.40;;;4.40;99.90;;;;;;5076181;28;20020;-82
2020/12/07 05:09:29;;;;;;;140.00;52.00;;;4.50;99.90;;;;;;5079805;28;20027;-82
2020/12/07 05:11:56;;;;;;;153.73;55.90;;;4.50;99.90;;;;;;5074570;28;20059;-82
2020/12/07 05:14:22;;;;;;;149.68;55.55;;;4.50;99.90;;;;;;5069028;28;20035;-83
2020/12/07 05:16:50;;;;;;;155.75;55.85;;;4.50;99.90;;;;;;5070681;28;20020;-84
2020/12/07 05:19:23;;;;;;;145.80;54.53;;;4.50;99.90;;;;;;5082271;28;20040;-83
2020/12/07 05:21:48;;;;;;;150.98;56.05;;;4.50;99.90;;;;;;5077844;28;20111;-85
2020/12/07 05:24:15;;;;;;;148.20;56.08;;;4.40;99.90;;;;;;5070919;28;20043;-85
2020/12/07 05:26:41;;;;;;;155.77;56.67;;;4.50;99.90;;;;;;5089956;28;20111;-84
2020/12/07 05:29:11;;;;;;;145.32;55.72;;;4.50;99.90;;;;;;5099085;28;20475;-85
2020/12/07 05:31:38;;;;;;;165.68;58.42;;;4.50;99.90;;;;;;5068636;28;20035;-84
2020/12/07 05:34:07;;;;;;;154.98;55.22;;;4.60;99.90;;;;;;5068910;28;20039;-84
2020/12/07 05:36:33;;;;;;;149.65;55.38;;;4.60;99.90;;;;;;5068897;28;20048;-83
2020/12/07 05:39:02;;;;;;;151.88;53.55;;;4.60;99.90;;;;;;5071513;28;20500;-83
2020/12/07 05:41:29;;;;;;;138.38;51.75;;;4.60;99.90;;;;;;5084847;28;20017;-85
2020/12/07 05:43:57;;;;;;;142.77;53.22;;;4.60;99.90;;;;;;5090827;28;20036;-85
2020/12/07 05:46:26;;;;;;;151.32;55.47;;;4.60;99.90;;;;;;5090084;28;20499;-84
2020/12/07 05:48:53;;;;;;;141.43;53.20;;;4.60;99.90;;;;;;5067118;28;20031;-85
2020/12/07 05:51:24;;;;;;;131.68;50.35;;;4.60;99.90;;;;;;5059502;28;21660;-83
2020/12/07 05:53:51;;;;;;;127.28;51.15;;;4.70;99.90;;;;;;5066993;28;20028;-83
2020/12/07 05:56:17;;;;;;;125.03;49.30;;;4.80;99.90;;;;;;5071373;28;20035;-84
2020/12/07 05:59:08;;;;;;;128.82;50.83;;;4.80;99.90;;;;;;5072457;28;20476;-85
2020/12/07 06:01:37;;;;;;;118.50;49.15;;;4.80;99.90;;;;;;5065711;28;20119;-82
2020/12/07 06:04:03;;;;;;;117.55;47.25;;;4.70;99.90;;;;;;5071474;28;20027;-83
2020/12/07 06:06:33;;;;;;;125.40;48.00;;;4.80;99.90;;;;;;5076538;28;20035;-85
2020/12/07 06:09:06;;;;;;;128.95;50.00;;;4.70;99.90;;;;;;5067046;28;20106;-85
2020/12/07 06:11:37;;;;;;;117.55;47.28;;;4.70;99.90;;;;;;5080645;28;20016;-83
2020/12/07 06:14:03;;;;;;;136.68;50.42;;;4.60;99.90;;;;;;5068759;28;20032;-82
2020/12/07 06:16:36;;;;;;;124.50;47.67;;;4.60;99.90;;;;;;5068153;28;20043;-82
2020/12/07 06:19:11;;;;;;;145.88;51.00;;;4.50;99.90;;;;;;5088705;28;20048;-82
2020/12/07 06:21:38;;;;;;;122.32;48.40;;;4.50;99.90;;;;;;5089449;28;20104;-82
2020/12/07 06:24:04;;;;;;;133.00;53.53;;;4.60;99.90;;;;;;5070432;28;20073;-82
2020/12/07 06:26:30;;;;;;;135.52;51.00;;;4.60;99.90;;;;;;5051891;28;20055;-82
2020/12/07 06:28:57;;;;;;;143.80;54.20;;;4.60;99.90;;;;;;5052102;28;20033;-82
2020/12/07 06:31:25;;;;;;;135.60;51.95;;;4.60;99.90;;;;;;5066478;28;20030;-83
2020/12/07 06:33:54;;;;;;;138.38;53.40;;;4.60;99.90;;;;;;5050051;28;20020;-82
2020/12/07 06:36:34;;;;;;;138.95;52.35;;;4.60;99.90;;;;;;5070444;28;20024;-82
2020/12/07 06:39:03;;;;;;;142.65;52.45;;;4.70;99.90;;;;;;5050153;28;20082;-82
2020/12/07 06:41:42;;;;;;;141.43;52.55;;;4.70;99.90;;;;;;5069741;28;20036;-85
2020/12/07 06:44:13;;;;;;;143.57;54.15;;;4.70;99.90;;;;;;5051968;28;20197;-84
2020/12/07 06:47:13;;;;;;;151.52;53.33;;;4.70;99.90;;;;;;5057347;28;20109;-85
2020/12/07 06:50:02;;;;;;;140.48;50.70;;;4.70;99.90;;;;;;5068325;28;20058;-84
2020/12/07 06:52:35;;;;;;;144.77;53.10;;;4.70;99.90;;;;;;5045221;28;20021;-85
2020/12/07 06:55:09;;;;;;;138.20;52.10;;;4.70;99.90;;;;;;5051427;28;20040;-84
2020/12/07 06:57:43;;;;;;;140.20;52.25;;;4.70;99.90;;;;;;5075261;28;20020;-84
2020/12/07 07:00:16;;;;;;;145.63;54.60;;;4.70;99.90;;;;;;5050941;28;20036;-84
2020/12/07 07:02:47;;;;;;;139.05;51.15;;;4.70;99.90;;;;;;5049406;28;20073;-83
2020/12/07 07:05:15;;;;;;;143.73;53.47;;;4.70;99.90;;;;;;5046075;28;21296;-84
2020/12/07 07:07:41;;;;;;;159.88;56.22;;;4.70;99.90;;;;;;5056599;28;20708;-84
2020/12/07 07:10:09;;;;;;;143.90;55.05;;;4.70;99.90;;;;;;5047996;28;20040;-83
2020/12/07 07:12:36;;;;;;;149.70;53.72;;;4.70;99.90;;;;;;5027113;28;20101;-84
2020/12/07 07:15:04;;;;;;;146.88;54.88;;;4.70;99.90;;;;;;5027502;28;20405;-84
2020/12/07 07:17:31;;;;;;;160.50;56.03;;;4.70;99.90;;;;;;5029328;28;20049;-84
2020/12/07 07:19:58;;;;;;;149.98;55.38;;;4.70;99.90;;;;;;5046249;28;20059;-84
2020/12/07 07:22:24;;;;;;;143.70;53.13;;;4.80;99.90;;;;;;5029634;28;20029;-84
2020/12/07 07:25:05;;;;;;;162.05;59.42;;;4.80;99.90;;;;;;5032350;28;20138;-84
2020/12/07 07:30:16;;;;;;;154.07;56.70;;;4.70;99.90;;;;;;5062045;28;20401;-84
2020/12/07 07:32:43;;;;;;;147.35;54.53;;;4.80;99.90;;;;;;5042828;28;20031;-84
2020/12/07 07:35:10;;;;;;;156.93;54.42;;;4.80;99.90;;;;;;5068492;28;20041;-84
2020/12/07 07:37:37;;;;;;;152.93;55.05;;;4.80;99.90;;;;;;5065441;28;20393;-84
2020/12/07 07:40:14;;;;;;;147.90;53.72;;;4.80;99.90;;;;;;5062962;28;20440;-84
2020/12/07 07:43:00;;;;;;;149.80;55.67;;;4.80;99.90;;;;;;5044773;28;20039;-84
2020/12/07 07:45:48;;;;;;;143.13;56.10;;;4.80;99.90;;;;;;5074768;28;20319;-84
2020/12/07 07:48:21;;;;;;;142.98;53.03;;;4.70;99.90;;;;;;5056794;28;20126;-84
2020/12/07 08:00:07;;;;;;;165.77;56.70;;;4.80;99.90;;;;;;5067584;28;20056;-85
2020/12/07 08:03:25;;;;;;;154.25;54.08;;;4.80;99.90;;;;;;5069790;28;20035;-84
2020/12/07 08:16:26;;;;;;;133.00;52.80;;;4.80;99.90;;;;;;5051058;28;20064;-84
2020/12/07 08:18:57;;;;;;;155.30;58.45;;;4.80;99.90;;;;;;5024079;28;20084;-84
2020/12/07 08:21:33;;;;;;;146.30;55.17;;;4.90;99.90;;;;;;4993864;28;20548;-84
2020/12/07 08:24:06;;;;;;;139.63;54.08;;;4.80;99.90;;;;;;5037379;28;20037;-84
2020/12/07 08:26:39;;;;;;;160.25;55.78;;;4.80;99.90;;;;;;5041976;28;21416;-84
2020/12/07 08:29:05;;;;;;;153.95;55.72;;;4.80;99.90;;;;;;5061357;28;20074;-84
2020/12/07 08:31:35;;;;;;;138.27;53.10;;;4.90;99.90;;;;;;5057302;28;20067;-84
2020/12/07 08:34:12;;;;;;;137.88;52.28;;;4.90;99.90;;;;;;5044982;28;20035;-84
2020/12/07 08:36:40;;;;;;;152.82;52.67;;;4.90;99.90;;;;;;5059262;28;20107;-84
2020/12/07 08:39:07;;;;;;;131.93;50.13;;;4.90;99.90;;;;;;5060352;28;20032;-84
2020/12/07 08:41:34;;;;;;;137.15;53.13;;;4.90;99.90;;;;;;5056913;28;20119;-83
2020/12/07 08:44:07;;;;;;;161.25;57.08;;;4.90;99.90;;;;;;5052813;28;20062;-82
2020/12/07 08:46:35;;;;;;;135.93;51.33;;;5.00;99.90;;;;;;5069869;28;20090;-83
2020/12/07 08:49:02;;;;;;;150.77;51.22;;;4.90;99.90;;;;;;5077988;28;20102;-83
2020/12/07 08:51:31;;;;;;;132.73;47.17;;;4.90;99.90;;;;;;5066451;28;20093;-84
2020/12/07 08:53:57;;;;;;;127.13;45.28;;;4.90;99.90;;;;;;5067521;28;20061;-83
2020/12/07 08:56:23;;;;;;;124.07;47.00;;;5.00;99.90;;;;;;5067834;28;20032;-83
2020/12/07 08:58:48;;;;;;;108.60;41.28;;;5.00;99.90;;;;;;5076843;28;20039;-82
2020/12/07 09:01:14;;;;;;;112.30;44.83;;;5.00;99.90;;;;;;5056372;28;20036;-83
2020/12/07 09:03:45;;;;;;;102.25;43.70;;;5.00;99.90;;;;;;5061169;28;20035;-84
2020/12/07 09:06:12;;;;;;;102.35;36.67;;;5.00;99.90;;;;;;5059809;28;20046;-84
2020/12/07 09:08:39;;;;;;;79.40;31.88;;;5.00;99.90;;;;;;5065978;28;20141;-84
2020/12/07 09:11:09;;;;;;;84.65;34.85;;;5.00;99.90;;;;;;5063351;28;20027;-84
2020/12/07 09:13:35;;;;;;;75.70;30.15;;;5.10;99.90;;;;;;5062012;28;20465;-84
2020/12/07 09:16:02;;;;;;;58.35;22.80;;;5.10;99.90;;;;;;5062720;28;20055;-84
2020/12/07 09:18:28;;;;;;;51.08;22.98;;;5.10;99.90;;;;;;5063420;28;20053;-83
2020/12/07 09:20:54;;;;;;;41.58;17.70;;;5.10;99.90;;;;;;5061226;28;20032;-85
2020/12/07 09:23:20;;;;;;;24.77;12.90;;;5.10;99.90;;;;;;5060810;28;20097;-82
2020/12/07 09:25:46;;;;;;;22.13;11.70;;;5.20;99.90;;;;;;5072913;28;20505;-82
2020/12/07 09:28:12;;;;;;;20.25;10.45;;;5.20;99.90;;;;;;5058531;28;20088;-83
2020/12/07 09:30:38;;;;;;;22.98;9.77;;;5.20;99.90;;;;;;5077905;28;20563;-82
2020/12/07 09:33:03;;;;;;;15.18;9.70;;;5.10;99.90;;;;;;5073028;28;20035;-82
2020/12/07 09:35:29;;;;;;;36.65;12.45;;;5.20;99.90;;;;;;5059827;28;20373;-84
2020/12/07 09:37:56;;;;;;;22.83;10.50;;;5.20;99.90;;;;;;5055742;28;20124;-83
2020/12/07 09:40:25;;;;;;;25.90;11.68;;;5.20;99.90;;;;;;5058623;28;20032;-82
2020/12/07 09:42:51;;;;;;;17.70;9.93;;;5.20;99.90;;;;;;5077663;28;20063;-82
2020/12/07 09:45:16;;;;;;;25.23;10.88;;;5.30;99.90;;;;;;5058342;28;20032;-82
2020/12/07 09:47:42;;;;;;;18.23;10.65;;;5.40;99.90;;;;;;5076177;28;20024;-82
2020/12/07 09:50:09;;;;;;;24.38;12.68;;;5.30;99.90;;;;;;5061419;28;20051;-82
2020/12/07 09:52:35;;;;;;;25.42;12.18;;;5.30;99.90;;;;;;5062799;28;20541;-83
2020/12/07 09:55:02;;;;;;;18.90;11.45;;;5.10;99.90;;;;;;5064001;28;20045;-83
2020/12/07 09:57:27;;;;;;;24.40;11.90;;;5.10;99.90;;;;;;5080410;28;21427;-83
2020/12/07 09:59:53;;;;;;;17.73;10.65;;;5.10;99.90;;;;;;5078920;28;20048;-83
2020/12/07 10:02:19;;;;;;;12.55;8.05;;;5.10;99.90;;;;;;5058957;28;20122;-83
2020/12/07 10:04:45;;;;;;;13.93;8.00;;;5.10;99.90;;;;;;5059165;28;20039;-83
2020/12/07 10:07:11;;;;;;;14.82;8.48;;;5.10;99.90;;;;;;5062820;28;20028;-83
2020/12/07 10:09:38;;;;;;;13.15;8.70;;;5.00;99.90;;;;;;5060736;28;20058;-83
2020/12/07 10:12:05;;;;;;;22.38;11.52;;;5.10;99.90;;;;;;5061809;28;20138;-83
2020/12/07 10:14:30;;;;;;;22.67;10.10;;;5.10;99.90;;;;;;5061582;28;20028;-82
2020/12/07 10:16:56;;;;;;;25.00;9.63;;;5.10;99.90;;;;;;5084608;28;20545;-83
2020/12/07 10:19:22;;;;;;;19.48;9.60;;;5.20;99.90;;;;;;5062977;28;20588;-84
2020/12/07 10:21:48;;;;;;;15.63;10.32;;;5.10;99.90;;;;;;5080889;28;20032;-83
2020/12/07 10:24:13;;;;;;;19.42;11.10;;;5.20;99.90;;;;;;5065652;28;20073;-83
2020/12/07 10:26:39;;;;;;;16.80;10.15;;;5.20;99.90;;;;;;5077606;28;20413;-83
2020/12/07 10:29:05;;;;;;;18.45;10.98;;;5.20;99.90;;;;;;5056758;28;20047;-83
2020/12/07 10:31:30;;;;;;;29.33;14.73;;;5.20;99.90;;;;;;5066632;28;20046;-83
2020/12/07 10:33:57;;;;;;;23.05;11.88;;;5.20;99.90;;;;;;5066145;28;20055;-83
2020/12/07 10:36:24;;;;;;;19.58;11.38;;;5.10;99.90;;;;;;5086201;28;20028;-83
2020/12/07 10:38:52;;;;;;;20.38;11.60;;;5.10;99.90;;;;;;5064086;28;20039;-83
2020/12/07 10:41:25;;;;;;;27.00;13.90;;;5.00;99.90;;;;;;5057246;28;20107;-83
2020/12/07 10:43:51;;;;;;;22.33;12.60;;;5.00;99.90;;;;;;5061691;28;20024;-83
2020/12/07 10:46:16;;;;;;;26.05;14.02;;;5.00;99.90;;;;;;5067924;28;20024;-83
2020/12/07 10:48:42;;;;;;;26.35;13.10;;;5.00;99.90;;;;;;5062769;28;20042;-83
2020/12/07 10:51:12;;;;;;;27.58;13.70;;;4.90;99.90;;;;;;5061210;28;20038;-83
2020/12/07 10:53:38;;;;;;;32.40;15.73;;;5.00;99.90;;;;;;5064678;28;20024;-84
2020/12/07 10:56:03;;;;;;;33.45;15.55;;;5.00;99.90;;;;;;5007811;28;20052;-83
2020/12/07 10:58:29;;;;;;;28.98;15.93;;;4.90;99.90;;;;;;5025364;28;20068;-83
2020/12/07 11:00:54;;;;;;;30.95;16.17;;;5.00;99.90;;;;;;5011538;28;20060;-82
2020/12/07 11:03:20;;;;;;;30.63;17.10;;;5.00;99.90;;;;;;5021610;28;20061;-83
2020/12/07 11:05:45;;;;;;;33.17;16.67;;;5.00;99.90;;;;;;5007408;28;20036;-83
2020/12/07 11:08:30;;;;;;;37.33;17.52;;;5.00;99.90;;;;;;5006472;28;21440;-84
2020/12/07 11:10:56;;;;;;;32.30;16.92;;;5.10;99.90;;;;;;5022474;28;20033;-83
2020/12/07 11:13:32;;;;;;;30.17;18.35;;;5.10;99.90;;;;;;5026092;28;20067;-83
2020/12/07 11:16:03;;;;;;;40.45;19.35;;;5.10;99.90;;;;;;5026228;28;20053;-83
2020/12/07 11:18:44;;;;;;;36.15;18.80;;;5.10;99.90;;;;;;5032808;28;20063;-83
2020/12/07 11:21:15;;;;;;;37.50;18.42;;;5.10;99.90;;;;;;5015449;28;20505;-83
2020/12/07 11:23:43;;;;;;;40.90;18.27;;;5.10;99.90;;;;;;5016999;28;20040;-83
2020/12/07 11:26:11;;;;;;;44.25;19.70;;;5.10;99.90;;;;;;5031282;28;20474;-82
2020/12/07 11:28:38;;;;;;;36.22;18.88;;;5.10;99.90;;;;;;5010717;28;20132;-83
2020/12/07 11:31:11;;;;;;;39.67;21.00;;;5.10;99.90;;;;;;5002400;28;20021;-84
2020/12/07 11:33:38;;;;;;;43.85;22.00;;;5.20;99.90;;;;;;5032559;28;20175;-83
2020/12/07 11:36:04;;;;;;;43.00;22.10;;;5.20;99.90;;;;;;5055708;28;20123;-83
2020/12/07 11:38:35;;;;;;;42.00;21.63;;;5.20;99.90;;;;;;5048427;28;20516;-83
2020/12/07 11:43:50;;;;;;;41.80;22.23;;;5.20;99.90;;;;;;5068257;28;20024;-83
2020/12/07 11:46:28;;;;;;;51.30;24.48;;;5.20;99.90;;;;;;5043769;28;20037;-83
2020/12/07 11:48:53;;;;;;;46.55;24.00;;;5.20;99.90;;;;;;5062427;28;20367;-82
2020/12/07 11:51:27;;;;;;;65.38;26.35;;;5.20;99.90;;;;;;5053788;28;20039;-82
2020/12/07 11:53:55;;;;;;;45.90;24.50;;;5.30;99.90;;;;;;5047280;28;20028;-82
2020/12/07 11:56:31;;;;;;;51.75;26.83;;;5.30;99.90;;;;;;5028645;28;20029;-82
2020/12/07 11:58:58;;;;;;;57.60;28.70;;;5.30;99.90;;;;;;5049001;28;20028;-82
2020/12/07 12:01:26;;;;;;;58.90;29.13;;;5.30;99.90;;;;;;5057293;28;20031;-83
2020/12/07 12:03:52;;;;;;;57.28;29.42;;;5.40;99.90;;;;;;5055535;28;20033;-83
2020/12/07 12:06:25;;;;;;;63.15;31.83;;;5.30;99.90;;;;;;5046274;28;20135;-83
2020/12/07 12:08:52;;;;;;;65.50;28.95;;;5.30;99.90;;;;;;5045370;28;20481;-84
2020/12/07 12:11:18;;;;;;;72.18;32.22;;;5.40;99.90;;;;;;5063279;28;20029;-83
2020/12/07 12:13:44;;;;;;;63.95;31.17;;;5.40;99.90;;;;;;5066097;28;20037;-83
2020/12/07 12:16:12;;;;;;;66.18;33.15;;;5.40;99.90;;;;;;5045704;28;20033;-83
2020/12/07 12:18:38;;;;;;;68.50;32.03;;;5.40;99.90;;;;;;5043154;28;20040;-83
2020/12/07 12:21:04;;;;;;;62.95;31.50;;;5.50;99.90;;;;;;5043409;28;20381;-84
2020/12/07 12:23:30;;;;;;;78.75;34.80;;;5.40;99.90;;;;;;5061129;28;20274;-83
2020/12/07 12:25:56;;;;;;;63.17;31.88;;;5.50;99.90;;;;;;5060982;28;20106;-84
2020/12/07 12:28:22;;;;;;;72.60;35.85;;;5.60;99.90;;;;;;5058914;28;20150;-85
2020/12/07 12:30:47;;;;;;;74.32;34.70;;;5.50;99.90;;;;;;5051837;28;20468;-84
2020/12/07 12:33:13;;;;;;;80.80;36.97;;;5.60;99.90;;;;;;5027892;28;20040;-85
2020/12/07 12:35:39;;;;;;;77.05;35.25;;;5.60;99.90;;;;;;5006515;28;20264;-84
2020/12/07 12:38:04;;;;;;;75.47;36.40;;;5.60;99.90;;;;;;4996923;28;20505;-85
2020/12/07 12:40:30;;;;;;;87.18;38.30;;;5.50;99.90;;;;;;5024629;28;20071;-85
2020/12/07 12:42:56;;;;;;;82.93;40.03;;;5.60;99.90;;;;;;5022274;28;20041;-85
2020/12/07 12:45:22;;;;;;;80.55;38.70;;;5.60;99.90;;;;;;5015093;28;20037;-84
2020/12/07 12:47:47;;;;;;;79.93;37.25;;;5.60;99.90;;;;;;5007937;28;20040;-83
2020/12/07 12:50:13;;;;;;;86.65;39.10;;;5.60;99.90;;;;;;5027811;28;20044;-83
2020/12/07 12:52:39;;;;;;;88.05;39.97;;;5.60;99.90;;;;;;5024442;28;20037;-83
2020/12/07 12:55:05;;;;;;;85.18;41.03;;;5.70;99.90;;;;;;5010991;28;20059;-83
2020/12/07 12:57:30;;;;;;;93.30;39.38;;;5.70;99.90;;;;;;5009892;28;20063;-83
2020/12/07 12:59:59;;;;;;;91.63;40.58;;;5.70;99.90;;;;;;5019767;28;20552;-83